Time;durP1;ratioP1;P1;durP2;ratioP2;P2;SDS_P1;SDS_P2;PMS_P1;PMS_P2;Temp;Humidity;BMP_temperature;BMP_pressure;BME280_temperature;BME280_humidity;BME280_pressure;Samples;Min_cycle;Max_cycle;Signal;HPM_P1;HPM_P2
2022/10/01 00:00:50;;;;;;;1.70;0.90;;;18.20;72.30;;;;;;4961237;28;20026;-57
2022/10/01 00:03:16;;;;;;;3.00;0.90;;;18.10;72.20;;;;;;4962513;28;20031;-56
2022/10/01 00:05:41;;;;;;;1.50;0.88;;;18.20;72.30;;;;;;4962159;28;20085;-56
2022/10/01 00:08:07;;;;;;;2.08;0.98;;;18.20;72.30;;;;;;4959011;28;20081;-57
2022/10/01 00:10:33;;;;;;;2.05;1.10;;;18.10;72.20;;;;;;4958484;28;20129;-56
2022/10/01 00:12:58;;;;;;;2.03;1.05;;;18.20;72.40;;;;;;4960765;28;20031;-56
2022/10/01 00:15:27;;;;;;;2.03;1.08;;;18.20;72.40;;;;;;4957993;28;20480;-56
2022/10/01 00:17:53;;;;;;;2.08;0.90;;;18.10;72.30;;;;;;4962667;28;20038;-56
2022/10/01 00:20:18;;;;;;;1.00;0.80;;;18.10;72.30;;;;;;4961194;28;20030;-56
2022/10/01 00:22:44;;;;;;;2.33;1.02;;;18.20;72.30;;;;;;4960000;28;21390;-56
2022/10/01 00:25:10;;;;;;;3.20;1.10;;;18.20;72.40;;;;;;4960587;28;20085;-56
2022/10/01 00:27:36;;;;;;;1.70;1.00;;;18.10;72.30;;;;;;4959589;28;20483;-57
2022/10/01 00:30:05;;;;;;;2.65;1.08;;;18.10;72.30;;;;;;4956425;28;20040;-56
2022/10/01 00:32:32;;;;;;;3.40;1.23;;;18.10;72.30;;;;;;4960536;28;20050;-57
2022/10/01 00:34:59;;;;;;;1.75;1.00;;;18.10;72.30;;;;;;4956407;28;20031;-57
2022/10/01 00:37:25;;;;;;;2.90;1.05;;;18.10;72.30;;;;;;4959598;28;20033;-57
2022/10/01 00:39:50;;;;;;;1.73;1.08;;;18.10;72.30;;;;;;4958020;28;20024;-57
2022/10/01 00:42:21;;;;;;;2.28;0.90;;;18.10;72.30;;;;;;4960746;28;20432;-56
2022/10/01 00:44:48;;;;;;;1.15;0.80;;;18.10;72.30;;;;;;4957044;28;20035;-56
2022/10/01 00:47:32;;;;;;;3.97;1.25;;;18.10;72.30;;;;;;4955777;28;20072;-57
2022/10/01 00:50:05;;;;;;;1.75;0.80;;;18.10;72.30;;;;;;4959469;28;20028;-56
2022/10/01 00:52:32;;;;;;;2.35;0.85;;;18.10;72.30;;;;;;4956668;28;20093;-56
2022/10/01 00:55:07;;;;;;;3.63;1.00;;;18.10;72.30;;;;;;4958496;28;20023;-56
2022/10/01 00:57:32;;;;;;;;;;;18.10;72.40;;;;;;4969334;28;20022;-56
2022/10/01 00:59:58;;;;;;;2.35;0.90;;;18.10;72.30;;;;;;4962449;28;19933;-56
2022/10/01 01:02:24;;;;;;;2.78;1.00;;;18.10;72.30;;;;;;4961340;28;20109;-56
2022/10/01 01:04:50;;;;;;;1.55;0.90;;;18.10;72.30;;;;;;4961521;28;20512;-56
2022/10/01 01:07:15;;;;;;;3.55;1.00;;;18.10;72.30;;;;;;4960522;28;20031;-56
2022/10/01 01:09:43;;;;;;;2.45;0.95;;;18.10;72.40;;;;;;4959802;28;20035;-56
2022/10/01 01:12:18;;;;;;;2.22;1.00;;;18.10;72.40;;;;;;4942977;28;20046;-56
2022/10/01 01:14:53;;;;;;;2.05;0.88;;;18.10;72.40;;;;;;4957238;28;20027;-57
2022/10/01 01:17:28;;;;;;;;;;;18.10;72.40;;;;;;4967777;28;20389;-56
2022/10/01 01:20:16;;;;;;;1.77;0.90;;;18.10;72.40;;;;;;4967834;28;20009;-56
2022/10/01 01:22:45;;;;;;;1.58;0.90;;;18.10;72.40;;;;;;4957985;28;20027;-57
2022/10/01 01:25:19;;;;;;;2.00;1.00;;;18.10;72.40;;;;;;4928458;28;20043;-57
2022/10/01 01:27:47;;;;;;;1.95;1.10;;;18.10;72.40;;;;;;4959459;28;20399;-56
2022/10/01 01:30:14;;;;;;;2.22;0.80;;;18.10;72.40;;;;;;4962541;28;20054;-57
2022/10/01 01:32:40;;;;;;;1.55;0.65;;;18.00;72.40;;;;;;4960792;28;20043;-57
2022/10/01 01:35:07;;;;;;;2.53;1.13;;;18.10;72.40;;;;;;4964963;28;20547;-57
2022/10/01 01:37:36;;;;;;;1.77;0.90;;;18.10;72.50;;;;;;4966734;28;20027;-56
2022/10/01 01:40:02;;;;;;;1.67;0.95;;;18.10;72.40;;;;;;4942447;28;20026;-57
2022/10/01 01:42:35;;;;;;;1.98;0.70;;;18.10;72.40;;;;;;4961468;28;20054;-56
2022/10/01 01:45:02;;;;;;;1.45;0.80;;;18.10;72.50;;;;;;4943575;28;20034;-56
2022/10/01 01:47:33;;;;;;;1.25;0.68;;;18.10;72.40;;;;;;4960019;28;20408;-56
2022/10/01 01:49:59;;;;;;;1.58;0.80;;;18.10;72.50;;;;;;4960395;28;20031;-56
2022/10/01 01:52:25;;;;;;;1.75;1.00;;;18.10;72.40;;;;;;4940253;28;20026;-57
2022/10/01 01:54:50;;;;;;;2.40;1.00;;;18.10;72.50;;;;;;4961024;28;20397;-56
2022/10/01 01:57:17;;;;;;;1.30;0.80;;;18.10;72.50;;;;;;4960850;28;20488;-57
2022/10/01 01:59:43;;;;;;;1.75;0.80;;;18.00;72.40;;;;;;4960640;28;20079;-57
2022/10/01 02:02:13;;;;;;;2.00;0.90;;;18.10;72.50;;;;;;4959942;28;20059;-56
2022/10/01 02:04:49;;;;;;;2.92;0.88;;;18.00;72.40;;;;;;4958704;28;20043;-56
2022/10/01 02:07:52;;;;;;;1.83;0.70;;;18.10;72.50;;;;;;4960303;28;20443;-57
2022/10/01 02:10:56;;;;;;;1.73;0.70;;;18.00;72.40;;;;;;4961118;28;20063;-56
2022/10/01 02:13:42;;;;;;;1.98;1.00;;;18.00;72.40;;;;;;4964307;28;20026;-56
2022/10/01 02:16:23;;;;;;;2.80;0.85;;;18.10;72.50;;;;;;4978648;28;20418;-56
2022/10/01 02:18:59;;;;;;;2.03;0.75;;;18.00;72.40;;;;;;4963869;28;20023;-57
2022/10/01 02:21:37;;;;;;;3.30;1.10;;;18.10;72.70;;;;;;4957273;28;20019;-57
2022/10/01 02:24:28;;;;;;;2.85;0.98;;;18.10;72.50;;;;;;4957890;28;20023;-57
2022/10/01 02:26:54;;;;;;;2.58;0.88;;;18.00;72.50;;;;;;4961211;28;20055;-57
2022/10/01 02:29:20;;;;;;;2.28;0.98;;;18.00;72.50;;;;;;4956669;28;20377;-57
2022/10/01 02:31:46;;;;;;;2.47;0.80;;;18.00;72.40;;;;;;4940392;28;20054;-57
2022/10/01 02:34:14;;;;;;;2.53;0.90;;;18.00;72.40;;;;;;4943224;28;20024;-57
2022/10/01 02:36:41;;;;;;;1.27;0.80;;;18.00;72.50;;;;;;4958217;28;20051;-56
2022/10/01 02:39:06;;;;;;;2.45;0.85;;;18.00;72.50;;;;;;4961008;28;20034;-56
2022/10/01 02:41:34;;;;;;;1.88;1.00;;;18.00;72.50;;;;;;4965689;28;20064;-56
2022/10/01 02:44:11;;;;;;;2.45;1.02;;;18.00;72.50;;;;;;4958552;28;20399;-56
2022/10/01 02:46:56;;;;;;;2.30;0.88;;;18.00;72.50;;;;;;4938283;28;20031;-56
2022/10/01 02:49:22;;;;;;;1.73;0.82;;;18.00;72.40;;;;;;4957641;28;20054;-57
2022/10/01 02:51:52;;;;;;;1.95;1.00;;;18.00;72.40;;;;;;4959365;28;20065;-57
2022/10/01 02:55:00;;;;;;;2.15;0.90;;;18.00;73.50;;;;;;4957644;28;20046;-56
2022/10/01 02:57:26;;;;;;;1.40;0.77;;;18.00;72.40;;;;;;4955938;28;20027;-56
2022/10/01 02:59:59;;;;;;;3.05;0.80;;;18.00;72.50;;;;;;4959643;28;20058;-57
2022/10/01 03:02:26;;;;;;;1.70;0.75;;;18.00;72.60;;;;;;4958087;28;20042;-56
2022/10/01 03:04:53;;;;;;;2.42;0.95;;;18.00;72.40;;;;;;4965872;28;20052;-57
2022/10/01 03:07:19;;;;;;;2.08;0.95;;;18.00;72.50;;;;;;4959633;28;20053;-56
2022/10/01 03:09:44;;;;;;;1.83;0.70;;;18.00;72.50;;;;;;4958741;28;20023;-57
2022/10/01 03:12:10;;;;;;;2.67;0.90;;;18.00;72.50;;;;;;4958834;28;20035;-57
2022/10/01 03:14:38;;;;;;;1.30;0.70;;;18.00;72.50;;;;;;4958240;28;20023;-56
2022/10/01 03:17:05;;;;;;;1.58;0.88;;;18.00;72.50;;;;;;4958691;28;20034;-57
2022/10/01 03:19:30;;;;;;;2.75;1.00;;;18.00;72.50;;;;;;4963585;28;20027;-56
2022/10/01 03:21:56;;;;;;;2.80;0.90;;;18.00;72.50;;;;;;4960151;28;20027;-56
2022/10/01 03:24:21;;;;;;;2.88;1.00;;;18.00;72.50;;;;;;4966180;28;20483;-56
2022/10/01 03:26:47;;;;;;;2.67;1.13;;;18.00;72.50;;;;;;4962897;28;20105;-57
2022/10/01 03:29:13;;;;;;;2.88;0.80;;;18.00;72.50;;;;;;4959201;28;20358;-57
2022/10/01 03:31:39;;;;;;;3.65;0.80;;;18.00;72.50;;;;;;4962226;28;20129;-57
2022/10/01 03:34:05;;;;;;;3.08;0.95;;;18.00;72.50;;;;;;4959966;28;20663;-56
2022/10/01 03:36:31;;;;;;;3.22;0.90;;;18.00;72.60;;;;;;4958877;28;21050;-56
2022/10/01 03:38:56;;;;;;;2.67;0.80;;;18.00;72.50;;;;;;4963936;28;20644;-57
2022/10/01 03:41:22;;;;;;;1.77;0.80;;;18.00;72.50;;;;;;4958496;28;20034;-56
2022/10/01 03:43:47;;;;;;;2.78;0.90;;;18.00;72.50;;;;;;4958335;28;20038;-57
2022/10/01 03:46:13;;;;;;;2.10;0.90;;;18.00;72.50;;;;;;4963956;28;20030;-56
2022/10/01 03:48:39;;;;;;;2.47;1.00;;;18.00;72.50;;;;;;4957667;28;20027;-57
2022/10/01 03:51:04;;;;;;;2.13;1.00;;;18.00;72.50;;;;;;4956515;28;20027;-57
2022/10/01 03:53:30;;;;;;;3.03;1.00;;;18.00;72.60;;;;;;4961307;28;20031;-57
2022/10/01 03:55:57;;;;;;;2.30;0.80;;;18.00;72.50;;;;;;4958342;28;20027;-56
2022/10/01 03:58:22;;;;;;;2.38;1.00;;;18.00;72.50;;;;;;4957036;28;20030;-57
2022/10/01 04:00:49;;;;;;;1.85;0.70;;;18.00;72.60;;;;;;4960455;28;20559;-56
2022/10/01 04:03:15;;;;;;;2.53;0.90;;;18.00;72.60;;;;;;4956254;28;20446;-57
2022/10/01 04:05:41;;;;;;;2.20;0.90;;;18.00;72.60;;;;;;4957461;28;20047;-57
2022/10/01 04:08:07;;;;;;;1.95;0.80;;;18.00;72.60;;;;;;4958185;28;20031;-57
2022/10/01 04:10:33;;;;;;;1.30;0.70;;;18.00;72.50;;;;;;4962933;28;20035;-57
2022/10/01 04:12:58;;;;;;;2.72;0.80;;;18.00;72.50;;;;;;4958790;28;20557;-57
2022/10/01 04:15:24;;;;;;;2.13;0.90;;;18.00;72.50;;;;;;4960602;28;20045;-56
2022/10/01 04:17:50;;;;;;;2.80;1.02;;;18.00;72.50;;;;;;4957875;28;20031;-56
2022/10/01 04:20:15;;;;;;;2.15;0.90;;;18.00;72.50;;;;;;4960477;28;20027;-57
2022/10/01 04:22:41;;;;;;;2.38;0.85;;;18.00;72.50;;;;;;4963951;28;20071;-57
2022/10/01 04:25:11;;;;;;;2.20;0.98;;;18.00;72.50;;;;;;4956438;28;20114;-56
2022/10/01 04:27:40;;;;;;;2.25;0.93;;;18.00;72.50;;;;;;4959877;28;20049;-57
2022/10/01 04:30:07;;;;;;;1.95;0.80;;;18.00;72.60;;;;;;4958171;28;20098;-57
2022/10/01 04:32:33;;;;;;;2.33;1.00;;;18.00;72.60;;;;;;4960312;28;20048;-57
2022/10/01 04:34:59;;;;;;;2.13;0.80;;;18.00;72.60;;;;;;4960568;28;20027;-57
2022/10/01 04:37:26;;;;;;;1.77;0.77;;;18.00;72.60;;;;;;4967361;28;20466;-57
2022/10/01 04:39:52;;;;;;;2.58;0.90;;;18.00;72.60;;;;;;4965818;28;20070;-57
2022/10/01 04:42:18;;;;;;;2.38;0.80;;;18.00;72.60;;;;;;4962225;28;20065;-57
2022/10/01 04:44:43;;;;;;;2.80;0.90;;;18.00;72.60;;;;;;4960997;28;20033;-56
2022/10/01 04:47:09;;;;;;;2.33;0.90;;;18.00;72.60;;;;;;4959625;28;20400;-57
2022/10/01 04:49:35;;;;;;;3.95;1.00;;;18.00;72.60;;;;;;4961562;28;20024;-56
2022/10/01 04:52:01;;;;;;;1.65;0.82;;;18.00;72.60;;;;;;4961584;28;20046;-56
2022/10/01 04:54:27;;;;;;;1.70;0.80;;;18.00;72.60;;;;;;4960603;28;20086;-56
2022/10/01 04:56:53;;;;;;;2.33;0.80;;;18.00;72.60;;;;;;4962071;28;20027;-56
2022/10/01 04:59:18;;;;;;;2.25;0.80;;;18.00;72.60;;;;;;4962906;28;20093;-57
2022/10/01 05:01:44;;;;;;;2.30;0.90;;;18.00;72.60;;;;;;4964979;28;20035;-56
2022/10/01 05:04:10;;;;;;;2.72;0.85;;;18.00;72.60;;;;;;4965315;28;20392;-57
2022/10/01 05:06:36;;;;;;;1.92;0.90;;;18.00;72.60;;;;;;4964290;28;20066;-57
2022/10/01 05:09:01;;;;;;;2.10;0.80;;;17.90;72.50;;;;;;4958805;28;20090;-57
2022/10/01 05:11:27;;;;;;;3.70;0.90;;;17.90;72.50;;;;;;4960371;28;20035;-56
2022/10/01 05:13:53;;;;;;;2.83;0.80;;;17.90;72.50;;;;;;4958968;28;20028;-57
2022/10/01 05:16:18;;;;;;;1.88;0.90;;;17.90;72.50;;;;;;4962891;28;20650;-56
2022/10/01 05:18:44;;;;;;;2.10;0.77;;;17.90;72.60;;;;;;4961079;28;20074;-57
2022/10/01 05:21:10;;;;;;;2.15;0.80;;;17.90;72.50;;;;;;4960300;28;20035;-56
2022/10/01 05:23:36;;;;;;;2.60;0.90;;;17.90;72.50;;;;;;4962847;28;20038;-56
2022/10/01 05:26:06;;;;;;;2.47;0.80;;;17.90;72.50;;;;;;4960741;28;20094;-56
2022/10/01 05:28:31;;;;;;;2.05;0.80;;;17.90;72.60;;;;;;4962015;28;20365;-56
2022/10/01 05:31:03;;;;;;;2.13;0.90;;;18.00;72.60;;;;;;4961933;28;20080;-57
2022/10/01 05:33:29;;;;;;;1.83;0.80;;;17.90;72.50;;;;;;4962900;28;20080;-56
2022/10/01 05:35:58;;;;;;;2.63;1.00;;;17.90;72.50;;;;;;4958651;28;20484;-57
2022/10/01 05:38:24;;;;;;;1.65;0.73;;;17.90;72.50;;;;;;4961381;28;20027;-57
2022/10/01 05:40:49;;;;;;;1.83;0.77;;;17.90;72.50;;;;;;4958410;28;20023;-56
2022/10/01 05:43:15;;;;;;;1.50;0.90;;;17.90;72.60;;;;;;4960577;28;20023;-57
2022/10/01 05:45:41;;;;;;;1.77;0.90;;;17.90;72.60;;;;;;4959351;28;20039;-57
2022/10/01 05:48:07;;;;;;;0.90;0.70;;;17.90;72.60;;;;;;4963834;28;20458;-57
2022/10/01 05:50:35;;;;;;;2.70;0.90;;;17.90;72.60;;;;;;4960331;28;20149;-56
2022/10/01 05:53:01;;;;;;;2.00;0.77;;;17.90;72.60;;;;;;4960093;28;20395;-56
2022/10/01 05:55:30;;;;;;;2.35;0.70;;;17.90;72.60;;;;;;4959499;28;20026;-56
2022/10/01 05:58:16;;;;;;;2.10;0.90;;;17.90;72.60;;;;;;4959556;28;20023;-56
2022/10/01 06:00:42;;;;;;;1.73;0.90;;;17.90;72.60;;;;;;4962408;28;20058;-56
2022/10/01 06:03:08;;;;;;;1.55;0.77;;;17.90;72.60;;;;;;4959840;28;20027;-56
2022/10/01 06:05:34;;;;;;;2.50;1.00;;;17.90;72.50;;;;;;4959864;28;20039;-57
2022/10/01 06:08:00;;;;;;;1.95;0.90;;;17.90;72.60;;;;;;4962614;28;20045;-57
2022/10/01 06:10:29;;;;;;;2.67;0.80;;;18.00;72.60;;;;;;4960390;28;20117;-56
2022/10/01 06:13:01;;;;;;;1.40;0.80;;;17.90;72.60;;;;;;4960206;28;20518;-57
2022/10/01 06:15:27;;;;;;;3.05;1.15;;;17.90;72.60;;;;;;4959669;28;20039;-57
2022/10/01 06:17:52;;;;;;;2.92;1.10;;;17.90;72.60;;;;;;4962200;28;20035;-57
2022/10/01 06:20:19;;;;;;;1.98;0.70;;;17.90;72.70;;;;;;4959357;28;20456;-57
2022/10/01 06:22:51;;;;;;;2.35;0.85;;;17.90;72.60;;;;;;4959594;28;20582;-56
2022/10/01 06:25:16;;;;;;;2.25;0.80;;;17.90;72.60;;;;;;4961127;28;20521;-57
2022/10/01 06:27:42;;;;;;;3.75;0.90;;;17.90;72.60;;;;;;4959943;28;20043;-56
2022/10/01 06:30:09;;;;;;;1.77;0.88;;;17.90;72.60;;;;;;4961592;28;20043;-56
2022/10/01 06:32:35;;;;;;;1.65;0.70;;;17.90;72.60;;;;;;4962127;28;20046;-57
2022/10/01 06:35:01;;;;;;;2.15;1.00;;;17.90;72.60;;;;;;4969221;28;20023;-57
2022/10/01 06:37:26;;;;;;;1.98;0.70;;;17.90;72.70;;;;;;4965478;28;20030;-56
2022/10/01 06:39:52;;;;;;;1.98;0.90;;;17.90;72.60;;;;;;4958945;28;20206;-56
2022/10/01 06:42:17;;;;;;;1.92;0.95;;;17.90;72.60;;;;;;4963853;28;20373;-57
2022/10/01 06:44:43;;;;;;;1.85;0.90;;;17.90;72.70;;;;;;4959478;28;20684;-57
2022/10/01 06:47:09;;;;;;;2.78;0.93;;;17.90;72.60;;;;;;4957365;28;20659;-56
2022/10/01 06:49:34;;;;;;;1.80;0.70;;;17.90;72.60;;;;;;4959431;28;20031;-57
2022/10/01 06:54:44;;;;;;;1.13;0.55;;;17.90;72.60;;;;;;4964443;28;20041;-57
2022/10/01 06:57:10;;;;;;;1.38;0.70;;;17.90;72.60;;;;;;4965860;28;20034;-56
2022/10/01 06:59:36;;;;;;;1.63;0.70;;;17.90;72.60;;;;;;4963564;28;20101;-56
2022/10/01 07:02:02;;;;;;;2.30;0.90;;;17.90;72.70;;;;;;4958097;28;20485;-57
2022/10/01 07:04:28;;;;;;;1.27;0.77;;;17.90;72.60;;;;;;4958542;28;20500;-56
2022/10/01 07:06:54;;;;;;;1.60;0.73;;;17.90;72.60;;;;;;4960924;28;20074;-57
2022/10/01 07:09:24;;;;;;;1.88;0.73;;;17.90;72.70;;;;;;4959096;28;20615;-56
2022/10/01 07:11:49;;;;;;;1.15;0.70;;;17.90;72.70;;;;;;4958818;28;20032;-57
2022/10/01 07:14:15;;;;;;;1.98;0.95;;;17.90;72.70;;;;;;4964449;28;20517;-56
2022/10/01 07:16:40;;;;;;;3.40;1.00;;;17.90;72.60;;;;;;4959080;28;20548;-56
2022/10/01 07:19:06;;;;;;;3.22;1.00;;;17.90;72.60;;;;;;4958841;28;20039;-56
2022/10/01 07:21:32;;;;;;;2.42;0.90;;;17.90;72.60;;;;;;4957097;28;20023;-57
2022/10/01 07:23:58;;;;;;;2.67;0.85;;;17.80;72.60;;;;;;4958066;28;20429;-57
2022/10/01 07:26:23;;;;;;;1.25;0.70;;;17.90;72.60;;;;;;4960297;28;20551;-57
2022/10/01 07:28:49;;;;;;;2.83;0.90;;;17.90;72.60;;;;;;4961900;28;20039;-57
2022/10/01 07:31:14;;;;;;;1.60;0.70;;;17.90;72.60;;;;;;4961586;28;20054;-56
2022/10/01 07:33:40;;;;;;;1.85;0.70;;;17.90;72.70;;;;;;4962033;28;20058;-57
2022/10/01 07:36:07;;;;;;;2.65;0.80;;;17.90;72.60;;;;;;4958954;28;20027;-56
2022/10/01 07:38:32;;;;;;;1.98;0.85;;;17.90;72.60;;;;;;4959120;28;20102;-57
2022/10/01 07:40:58;;;;;;;1.52;0.65;;;17.90;72.60;;;;;;4961668;28;20110;-57
2022/10/01 07:43:24;;;;;;;3.13;0.80;;;17.80;72.60;;;;;;4960577;28;20053;-56
2022/10/01 07:45:51;;;;;;;1.80;0.68;;;17.90;72.60;;;;;;4958837;28;20023;-56
2022/10/01 07:48:18;;;;;;;1.25;0.52;;;17.80;72.50;;;;;;4956996;28;20042;-56
2022/10/01 07:50:46;;;;;;;1.75;0.70;;;17.80;72.60;;;;;;4957743;28;20670;-57
2022/10/01 07:53:12;;;;;;;2.00;0.70;;;17.90;72.60;;;;;;4958703;28;20052;-57
2022/10/01 07:55:37;;;;;;;2.30;0.98;;;17.90;72.60;;;;;;4957611;28;20504;-56
2022/10/01 07:58:03;;;;;;;1.70;0.73;;;17.90;72.60;;;;;;4961533;28;20053;-57
2022/10/01 08:00:30;;;;;;;2.40;1.05;;;17.90;72.60;;;;;;4964833;28;20057;-57
2022/10/01 08:02:56;;;;;;;2.63;0.80;;;17.90;72.70;;;;;;4962809;28;20026;-57
2022/10/01 08:05:27;;;;;;;3.15;1.00;;;17.90;72.60;;;;;;4962557;28;20034;-57
2022/10/01 08:07:57;;;;;;;1.45;0.60;;;17.90;72.60;;;;;;4958927;28;20122;-57
2022/10/01 08:10:22;;;;;;;2.95;0.90;;;17.90;72.70;;;;;;4958727;28;20027;-56
2022/10/01 08:12:48;;;;;;;1.33;0.70;;;17.90;72.50;;;;;;4963476;28;20037;-57
2022/10/01 08:15:15;;;;;;;2.83;0.85;;;17.90;72.50;;;;;;4961328;28;20086;-57
2022/10/01 08:17:40;;;;;;;3.35;0.80;;;17.90;72.50;;;;;;4959454;28;20030;-57
2022/10/01 08:20:07;;;;;;;1.05;0.80;;;17.90;72.50;;;;;;4962278;28;20037;-56
2022/10/01 08:22:33;;;;;;;2.10;0.65;;;17.90;72.50;;;;;;4960676;28;20444;-56
2022/10/01 08:24:58;;;;;;;2.80;0.90;;;17.90;72.50;;;;;;4964591;28;20094;-57
2022/10/01 08:27:24;;;;;;;4.90;1.00;;;17.90;72.40;;;;;;4957676;28;20034;-57
2022/10/01 08:29:50;;;;;;;1.63;0.60;;;17.90;72.50;;;;;;4959707;28;20057;-57
2022/10/01 08:32:18;;;;;;;2.60;0.80;;;17.90;72.60;;;;;;4963372;28;20027;-57
2022/10/01 08:34:43;;;;;;;2.00;0.70;;;17.90;72.50;;;;;;4959344;28;20027;-57
2022/10/01 08:37:09;;;;;;;1.33;0.63;;;17.90;72.20;;;;;;4956418;28;20050;-56
2022/10/01 08:39:36;;;;;;;3.38;0.77;;;17.90;72.30;;;;;;4960325;28;20046;-57
2022/10/01 08:42:15;;;;;;;1.20;0.70;;;17.90;72.30;;;;;;4959104;28;20384;-57
2022/10/01 08:44:42;;;;;;;2.15;0.82;;;17.90;72.50;;;;;;4965820;28;20824;-57
2022/10/01 08:47:34;;;;;;;1.98;0.77;;;17.90;72.60;;;;;;4957943;28;20066;-57
2022/10/01 08:50:41;;;;;;;2.70;0.90;;;17.90;72.60;;;;;;4956856;28;20043;-57
2022/10/01 08:53:11;;;;;;;1.88;0.88;;;17.90;72.50;;;;;;4954173;28;20039;-57
2022/10/01 08:55:38;;;;;;;1.52;0.73;;;18.00;72.60;;;;;;4940568;28;20034;-57
2022/10/01 08:58:05;;;;;;;2.95;0.90;;;17.90;72.60;;;;;;4956502;28;20055;-57
2022/10/01 09:00:33;;;;;;;3.85;0.80;;;17.90;72.60;;;;;;4941436;28;20512;-57
2022/10/01 09:03:02;;;;;;;2.40;0.90;;;17.90;72.60;;;;;;4942127;28;20019;-57
2022/10/01 09:05:40;;;;;;;3.25;0.90;;;17.90;72.60;;;;;;4937806;28;20031;-57
2022/10/01 09:08:16;;;;;;;3.00;0.80;;;17.90;72.60;;;;;;4958026;28;20027;-57
2022/10/01 09:11:03;;;;;;;3.45;0.95;;;17.90;72.50;;;;;;4957049;28;20107;-56
2022/10/01 09:14:06;;;;;;;3.22;0.95;;;18.00;72.60;;;;;;4957649;28;20031;-57
2022/10/01 09:16:31;;;;;;;2.50;0.90;;;17.90;72.50;;;;;;4961099;28;20019;-56
2022/10/01 09:19:35;;;;;;;1.90;0.85;;;17.90;72.60;;;;;;4961281;28;20043;-57
2022/10/01 09:22:12;;;;;;;1.92;0.80;;;18.00;72.60;;;;;;4964010;28;22639;-57
2022/10/01 09:24:49;;;;;;;2.00;0.70;;;18.00;72.60;;;;;;4932520;28;20023;-57
2022/10/01 09:27:25;;;;;;;2.40;0.70;;;18.00;72.60;;;;;;4948863;28;20035;-57
2022/10/01 09:30:11;;;;;;;2.25;0.70;;;18.00;72.60;;;;;;4960668;28;20047;-56
2022/10/01 09:32:45;;;;;;;1.98;0.85;;;18.00;72.50;;;;;;4947616;28;20019;-56
2022/10/01 09:35:45;;;;;;;1.30;0.90;;;18.00;72.50;;;;;;4945089;28;20031;-57
2022/10/01 09:38:14;;;;;;;2.15;1.02;;;18.00;72.70;;;;;;4962240;28;20070;-57
2022/10/01 09:40:53;;;;;;;2.67;0.68;;;18.00;72.70;;;;;;4967856;28;20514;-57
2022/10/01 09:43:25;;;;;;;2.25;0.90;;;18.10;72.70;;;;;;4969301;28;20047;-57
2022/10/01 09:45:50;;;;;;;3.55;0.90;;;18.10;72.60;;;;;;4959925;28;20062;-57
2022/10/01 09:48:33;;;;;;;2.67;1.00;;;18.10;72.60;;;;;;4984001;28;20507;-57
2022/10/01 09:51:07;;;;;;;2.65;0.90;;;18.20;72.50;;;;;;4944813;28;20038;-57
2022/10/01 09:53:37;;;;;;;4.15;0.75;;;18.20;72.60;;;;;;4949215;28;20066;-57
2022/10/01 09:56:08;;;;;;;7.07;1.50;;;18.20;72.70;;;;;;4964731;28;20451;-57
2022/10/01 09:58:34;;;;;;;9.52;1.67;;;18.30;73.70;;;;;;4960541;28;20037;-57
2022/10/01 10:01:00;;;;;;;7.32;1.30;;;18.40;73.90;;;;;;4959688;28;20111;-57
2022/10/01 10:03:29;;;;;;;5.95;1.30;;;18.40;73.60;;;;;;4944816;28;20078;-57
2022/10/01 10:05:55;;;;;;;4.22;1.17;;;18.40;73.20;;;;;;4961289;28;20114;-56
2022/10/01 10:08:30;;;;;;;5.25;1.20;;;18.50;73.30;;;;;;4944166;28;20455;-57
2022/10/01 10:11:07;;;;;;;6.10;1.25;;;18.50;73.40;;;;;;4962144;28;20035;-57
2022/10/01 10:13:37;;;;;;;4.82;1.20;;;18.50;73.40;;;;;;4959030;28;20790;-57
2022/10/01 10:16:33;;;;;;;6.75;1.42;;;18.60;74.40;;;;;;4960392;28;20039;-57
2022/10/01 10:19:25;;;;;;;5.70;1.42;;;18.60;73.30;;;;;;4956889;28;20050;-57
2022/10/01 10:21:59;;;;;;;7.40;1.20;;;18.70;73.30;;;;;;4941988;28;20118;-56
2022/10/01 10:24:29;;;;;;;8.03;1.50;;;18.60;73.20;;;;;;4962645;28;20480;-57
2022/10/01 10:26:57;;;;;;;6.18;1.40;;;18.70;73.10;;;;;;4962468;28;20888;-57
2022/10/01 10:29:33;;;;;;;4.00;1.27;;;18.70;73.20;;;;;;4957753;28;20034;-56
2022/10/01 10:32:03;;;;;;;6.50;1.60;;;18.70;73.00;;;;;;4959021;28;20047;-57
2022/10/01 10:34:38;;;;;;;5.55;1.60;;;18.70;73.10;;;;;;4961866;28;20107;-57
2022/10/01 10:37:09;;;;;;;5.60;1.42;;;18.70;73.00;;;;;;4940355;28;20034;-56
2022/10/01 10:39:39;;;;;;;4.57;1.20;;;18.70;73.00;;;;;;4966130;28;20023;-57
2022/10/01 10:42:05;;;;;;;7.82;1.08;;;18.80;72.90;;;;;;4956697;28;20027;-57
2022/10/01 10:44:37;;;;;;;5.60;1.13;;;18.80;72.90;;;;;;4959498;28;20059;-57
2022/10/01 10:47:12;;;;;;;7.80;1.33;;;18.90;72.90;;;;;;4958093;28;20054;-57
2022/10/01 10:49:51;;;;;;;7.75;1.30;;;18.90;72.80;;;;;;4947709;28;20027;-57
2022/10/01 10:52:24;;;;;;;6.43;1.40;;;18.90;72.70;;;;;;4959754;28;20399;-57
2022/10/01 10:54:52;;;;;;;6.10;1.30;;;18.90;72.70;;;;;;4960279;28;20031;-57
2022/10/01 10:57:26;;;;;;;6.47;1.38;;;19.00;72.80;;;;;;4958308;28;20385;-56
2022/10/01 11:00:01;;;;;;;;;;;19.00;72.60;;;;;;4960579;28;20035;-57
2022/10/01 11:02:30;;;;;;;7.25;1.52;;;19.10;72.60;;;;;;4962658;28;20573;-57
2022/10/01 11:05:19;;;;;;;5.78;1.40;;;19.10;72.60;;;;;;4941366;28;20035;-57
2022/10/01 11:07:45;;;;;;;9.90;1.45;;;19.20;72.60;;;;;;4959049;28;20109;-57
2022/10/01 11:10:30;;;;;;;8.85;1.67;;;19.20;72.50;;;;;;4959779;28;20055;-57
2022/10/01 11:13:11;;;;;;;6.65;1.45;;;19.20;72.60;;;;;;4945769;28;20046;-57
2022/10/01 11:15:44;;;;;;;9.43;2.00;;;19.20;72.60;;;;;;4967143;28;20435;-57
2022/10/01 11:18:25;;;;;;;9.68;1.90;;;19.30;72.60;;;;;;4960312;28;20404;-57
2022/10/01 11:21:18;;;;;;;10.95;2.10;;;19.30;72.80;;;;;;4958689;28;20074;-57
2022/10/01 11:24:00;;;;;;;14.55;2.30;;;19.40;72.60;;;;;;4961132;28;20036;-58
2022/10/01 11:26:57;;;;;;;12.77;2.63;;;19.40;72.80;;;;;;4970764;28;20050;-57
2022/10/01 11:29:39;;;;;;;11.75;2.08;;;19.50;72.60;;;;;;4961738;28;20037;-58
2022/10/01 11:32:23;;;;;;;14.00;2.30;;;19.50;72.40;;;;;;4979004;28;20049;-57
2022/10/01 11:35:18;;;;;;;15.00;2.95;;;19.50;72.60;;;;;;4959957;28;20119;-57
2022/10/01 11:37:57;;;;;;;20.75;2.72;;;19.50;72.30;;;;;;4960363;28;20032;-57
2022/10/01 11:40:27;;;;;;;13.52;2.53;;;19.50;72.40;;;;;;4954909;28;20029;-56
2022/10/01 11:42:59;;;;;;;15.35;2.58;;;19.50;72.30;;;;;;4958592;28;20027;-57
2022/10/01 11:45:31;;;;;;;16.08;2.38;;;19.50;72.20;;;;;;4961841;28;20038;-57
2022/10/01 11:48:07;;;;;;;13.50;2.25;;;19.50;72.20;;;;;;4961247;28;20121;-57
2022/10/01 11:50:39;;;;;;;15.93;2.88;;;19.50;72.30;;;;;;4959769;28;20019;-57
2022/10/01 11:53:33;;;;;;;18.05;2.92;;;19.50;72.00;;;;;;4955474;28;20027;-57
2022/10/01 11:59:19;;;;;;;15.88;2.70;;;19.60;71.70;;;;;;4959516;28;20333;-56
2022/10/01 12:02:03;;;;;;;15.27;2.78;;;19.60;71.40;;;;;;4963067;28;20034;-57
2022/10/01 12:04:59;;;;;;;18.67;3.08;;;19.70;71.40;;;;;;4942967;28;20033;-57
2022/10/01 12:07:42;;;;;;;19.25;3.33;;;19.70;70.90;;;;;;4959314;28;20051;-57
2022/10/01 12:10:43;;;;;;;18.27;3.03;;;19.70;71.00;;;;;;4957899;28;20122;-57
2022/10/01 12:13:19;;;;;;;18.67;2.92;;;19.80;70.90;;;;;;4959361;28;20051;-57
2022/10/01 12:16:00;;;;;;;14.10;2.47;;;19.90;70.60;;;;;;4978745;28;20101;-57
2022/10/01 12:18:46;;;;;;;15.15;2.88;;;19.90;70.40;;;;;;4965118;28;20130;-57
2022/10/01 12:21:13;;;;;;;;;;;19.90;70.20;;;;;;4947066;28;20019;-57
2022/10/01 12:23:45;;;;;;;16.83;2.72;;;20.00;70.10;;;;;;4980301;28;20017;-58
2022/10/01 12:26:22;;;;;;;14.45;2.33;;;20.00;69.80;;;;;;4947865;28;20053;-58
2022/10/01 12:28:51;;;;;;;14.88;2.50;;;20.00;69.80;;;;;;4958524;28;20477;-58
2022/10/01 12:31:36;;;;;;;16.73;2.70;;;19.90;69.90;;;;;;4956167;28;20074;-58
2022/10/01 12:34:56;;;;;;;15.52;2.47;;;19.80;69.90;;;;;;4958127;28;20085;-58
2022/10/01 12:37:28;;;;;;;17.63;2.40;;;19.90;70.00;;;;;;4936275;28;20095;-57
2022/10/01 12:40:29;;;;;;;17.80;2.90;;;19.80;70.80;;;;;;4939545;28;20066;-58
2022/10/01 12:43:09;;;;;;;18.85;2.80;;;19.80;70.00;;;;;;4925598;28;20043;-58
2022/10/01 12:45:51;;;;;;;19.50;3.40;;;19.80;69.90;;;;;;4928907;28;20043;-58
2022/10/01 12:48:24;;;;;;;17.58;3.25;;;19.90;69.90;;;;;;4936573;28;20059;-58
2022/10/01 12:51:02;;;;;;;14.90;2.88;;;19.90;70.10;;;;;;4925178;28;20552;-58
2022/10/01 12:53:32;;;;;;;16.30;2.45;;;19.90;70.10;;;;;;4927974;28;20042;-58
2022/10/01 12:56:07;;;;;;;13.77;2.55;;;20.00;69.90;;;;;;4948772;28;20031;-58
2022/10/01 12:59:04;;;;;;;14.25;2.63;;;20.00;70.00;;;;;;4924897;28;20043;-58
2022/10/01 13:01:35;;;;;;;12.90;2.70;;;20.00;70.10;;;;;;4928734;28;20047;-58
2022/10/01 13:04:25;;;;;;;14.57;2.70;;;20.00;70.00;;;;;;4927330;29;20532;-58
2022/10/01 13:07:08;;;;;;;13.68;2.70;;;20.10;69.90;;;;;;4926124;28;20046;-58
2022/10/01 13:09:57;;;;;;;14.85;2.60;;;20.10;69.90;;;;;;4911702;28;20495;-58
2022/10/01 13:12:40;;;;;;;15.80;2.72;;;20.20;70.00;;;;;;4903129;29;20807;-57